sensor_id;sensor_type;location;lat;lon;timestamp;temperature;humidity
37996;DHT22;23808;50.634;6.948;2022-07-04T00:03:52;16.70;96.90
37996;DHT22;23808;50.634;6.948;2022-07-04T00:07:53;16.60;97.10
37996;DHT22;23808;50.634;6.948;2022-07-04T00:11:53;16.60;97.20
37996;DHT22;23808;50.634;6.948;2022-07-04T00:15:55;16.50;97.10
37996;DHT22;23808;50.634;6.948;2022-07-04T00:19:55;16.50;97.20
37996;DHT22;23808;50.634;6.948;2022-07-04T00:23:56;16.40;97.40
37996;DHT22;23808;50.634;6.948;2022-07-04T00:27:57;16.40;97.60
37996;DHT22;23808;50.634;6.948;2022-07-04T00:31:58;16.30;97.70
37996;DHT22;23808;50.634;6.948;2022-07-04T00:35:58;16.30;98.00
37996;DHT22;23808;50.634;6.948;2022-07-04T00:39:59;16.20;98.10
37996;DHT22;23808;50.634;6.948;2022-07-04T00:44:10;16.20;98.20
37996;DHT22;23808;50.634;6.948;2022-07-04T00:48:11;16.10;98.30
37996;DHT22;23808;50.634;6.948;2022-07-04T00:52:12;16.10;98.70
37996;DHT22;23808;50.634;6.948;2022-07-04T00:56:13;16.10;98.50
37996;DHT22;23808;50.634;6.948;2022-07-04T01:00:17;16.00;98.70
37996;DHT22;23808;50.634;6.948;2022-07-04T01:04:18;16.00;98.80
37996;DHT22;23808;50.634;6.948;2022-07-04T01:08:19;15.90;98.90
37996;DHT22;23808;50.634;6.948;2022-07-04T01:12:29;15.90;99.00
37996;DHT22;23808;50.634;6.948;2022-07-04T01:16:29;15.80;99.00
37996;DHT22;23808;50.634;6.948;2022-07-04T01:20:34;15.80;99.10
37996;DHT22;23808;50.634;6.948;2022-07-04T01:24:35;15.70;99.20
37996;DHT22;23808;50.634;6.948;2022-07-04T01:28:36;15.70;99.20
37996;DHT22;23808;50.634;6.948;2022-07-04T01:32:37;15.70;99.30
37996;DHT22;23808;50.634;6.948;2022-07-04T01:36:38;15.70;99.30
37996;DHT22;23808;50.634;6.948;2022-07-04T01:40:38;15.60;99.30
37996;DHT22;23808;50.634;6.948;2022-07-04T01:44:39;15.60;99.40
37996;DHT22;23808;50.634;6.948;2022-07-04T01:48:39;15.60;99.50
37996;DHT22;23808;50.634;6.948;2022-07-04T01:52:40;15.60;99.60
37996;DHT22;23808;50.634;6.948;2022-07-04T01:56:41;15.50;99.70
37996;DHT22;23808;50.634;6.948;2022-07-04T02:00:42;15.50;99.80
37996;DHT22;23808;50.634;6.948;2022-07-04T02:05:02;15.50;99.90
37996;DHT22;23808;50.634;6.948;2022-07-04T02:09:03;15.50;99.80
37996;DHT22;23808;50.634;6.948;2022-07-04T02:13:15;15.50;99.90
37996;DHT22;23808;50.634;6.948;2022-07-04T02:17:16;15.40;99.90
37996;DHT22;23808;50.634;6.948;2022-07-04T02:21:16;15.40;99.90
37996;DHT22;23808;50.634;6.948;2022-07-04T02:25:17;15.40;99.90
37996;DHT22;23808;50.634;6.948;2022-07-04T02:29:18;15.40;99.90
37996;DHT22;23808;50.634;6.948;2022-07-04T02:33:18;15.40;99.90
37996;DHT22;23808;50.634;6.948;2022-07-04T02:37:19;15.40;99.90
37996;DHT22;23808;50.634;6.948;2022-07-04T02:41:19;15.40;99.90
37996;DHT22;23808;50.634;6.948;2022-07-04T02:45:20;15.30;99.90
37996;DHT22;23808;50.634;6.948;2022-07-04T02:49:21;15.20;99.90
37996;DHT22;23808;50.634;6.948;2022-07-04T02:53:21;15.10;99.90
37996;DHT22;23808;50.634;6.948;2022-07-04T02:57:22;15.00;99.90
37996;DHT22;23808;50.634;6.948;2022-07-04T03:01:22;15.00;99.90
37996;DHT22;23808;50.634;6.948;2022-07-04T03:05:23;14.90;99.90
37996;DHT22;23808;50.634;6.948;2022-07-04T03:09:24;14.80;99.90
37996;DHT22;23808;50.634;6.948;2022-07-04T03:13:27;14.70;99.90
37996;DHT22;23808;50.634;6.948;2022-07-04T03:17:28;14.60;99.90
37996;DHT22;23808;50.634;6.948;2022-07-04T03:21:30;14.60;99.90
37996;DHT22;23808;50.634;6.948;2022-07-04T03:25:31;14.50;99.90
37996;DHT22;23808;50.634;6.948;2022-07-04T03:29:31;14.40;99.90
37996;DHT22;23808;50.634;6.948;2022-07-04T03:33:32;14.40;99.90
37996;DHT22;23808;50.634;6.948;2022-07-04T03:37:32;14.40;99.90
37996;DHT22;23808;50.634;6.948;2022-07-04T03:41:33;14.40;99.90
37996;DHT22;23808;50.634;6.948;2022-07-04T03:45:33;14.30;99.90
37996;DHT22;23808;50.634;6.948;2022-07-04T03:49:34;14.30;99.90
37996;DHT22;23808;50.634;6.948;2022-07-04T03:53:35;14.30;99.90
37996;DHT22;23808;50.634;6.948;2022-07-04T03:57:35;14.30;99.90
37996;DHT22;23808;50.634;6.948;2022-07-04T04:01:36;14.30;99.90
37996;DHT22;23808;50.634;6.948;2022-07-04T04:05:36;14.20;99.90
37996;DHT22;23808;50.634;6.948;2022-07-04T04:09:37;14.20;99.90
37996;DHT22;23808;50.634;6.948;2022-07-04T04:13:38;14.20;99.90
37996;DHT22;23808;50.634;6.948;2022-07-04T04:17:38;14.10;99.90
37996;DHT22;23808;50.634;6.948;2022-07-04T04:21:39;14.20;99.90
37996;DHT22;23808;50.634;6.948;2022-07-04T04:25:39;14.20;99.90
37996;DHT22;23808;50.634;6.948;2022-07-04T04:29:40;14.20;99.90
37996;DHT22;23808;50.634;6.948;2022-07-04T04:33:40;14.20;99.90
37996;DHT22;23808;50.634;6.948;2022-07-04T04:37:41;14.20;99.90
37996;DHT22;23808;50.634;6.948;2022-07-04T04:41:42;14.30;99.90
37996;DHT22;23808;50.634;6.948;2022-07-04T04:45:42;14.30;99.90
37996;DHT22;23808;50.634;6.948;2022-07-04T04:49:43;14.40;99.90
37996;DHT22;23808;50.634;6.948;2022-07-04T04:53:44;14.40;99.90
37996;DHT22;23808;50.634;6.948;2022-07-04T04:57:44;14.50;99.90
37996;DHT22;23808;50.634;6.948;2022-07-04T05:01:45;14.50;99.90
37996;DHT22;23808;50.634;6.948;2022-07-04T05:05:46;14.60;99.90
37996;DHT22;23808;50.634;6.948;2022-07-04T05:09:46;14.70;99.90
37996;DHT22;23808;50.634;6.948;2022-07-04T05:13:47;14.80;99.90
37996;DHT22;23808;50.634;6.948;2022-07-04T05:17:48;14.90;99.90
37996;DHT22;23808;50.634;6.948;2022-07-04T05:21:50;15.00;99.90
37996;DHT22;23808;50.634;6.948;2022-07-04T05:25:50;15.20;99.90
37996;DHT22;23808;50.634;6.948;2022-07-04T05:29:51;15.40;99.90
37996;DHT22;23808;50.634;6.948;2022-07-04T05:33:52;15.40;99.90
37996;DHT22;23808;50.634;6.948;2022-07-04T05:37:54;15.60;99.90
37996;DHT22;23808;50.634;6.948;2022-07-04T05:41:55;15.70;99.90
37996;DHT22;23808;50.634;6.948;2022-07-04T05:45:55;15.90;99.90
37996;DHT22;23808;50.634;6.948;2022-07-04T05:49:56;16.10;99.90
37996;DHT22;23808;50.634;6.948;2022-07-04T05:53:58;16.30;99.90
37996;DHT22;23808;50.634;6.948;2022-07-04T05:57:59;16.40;99.90
37996;DHT22;23808;50.634;6.948;2022-07-04T06:02:00;16.60;99.90
37996;DHT22;23808;50.634;6.948;2022-07-04T06:06:00;16.80;99.90
37996;DHT22;23808;50.634;6.948;2022-07-04T06:10:01;17.00;99.90
37996;DHT22;23808;50.634;6.948;2022-07-04T06:14:01;17.20;99.90
37996;DHT22;23808;50.634;6.948;2022-07-04T06:18:02;17.50;99.90
37996;DHT22;23808;50.634;6.948;2022-07-04T06:22:03;17.70;99.90
37996;DHT22;23808;50.634;6.948;2022-07-04T06:26:04;18.10;99.60
37996;DHT22;23808;50.634;6.948;2022-07-04T06:30:06;18.60;98.80
37996;DHT22;23808;50.634;6.948;2022-07-04T06:34:07;19.10;97.90
37996;DHT22;23808;50.634;6.948;2022-07-04T06:38:27;19.60;96.70
37996;DHT22;23808;50.634;6.948;2022-07-04T06:42:29;19.90;96.10
37996;DHT22;23808;50.634;6.948;2022-07-04T06:46:29;20.20;95.00
37996;DHT22;23808;50.634;6.948;2022-07-04T06:50:30;20.50;94.20
37996;DHT22;23808;50.634;6.948;2022-07-04T06:54:34;20.90;94.10
37996;DHT22;23808;50.634;6.948;2022-07-04T06:58:34;21.30;93.10
37996;DHT22;23808;50.634;6.948;2022-07-04T07:02:36;21.50;92.10
37996;DHT22;23808;50.634;6.948;2022-07-04T07:06:36;21.60;91.30
37996;DHT22;23808;50.634;6.948;2022-07-04T07:10:37;21.60;91.10
37996;DHT22;23808;50.634;6.948;2022-07-04T07:14:37;21.70;90.50
37996;DHT22;23808;50.634;6.948;2022-07-04T07:18:38;21.90;90.40
37996;DHT22;23808;50.634;6.948;2022-07-04T07:22:40;22.10;87.30
37996;DHT22;23808;50.634;6.948;2022-07-04T07:26:41;22.20;87.60
37996;DHT22;23808;50.634;6.948;2022-07-04T07:30:42;22.30;85.70
37996;DHT22;23808;50.634;6.948;2022-07-04T07:34:43;22.40;84.50
37996;DHT22;23808;50.634;6.948;2022-07-04T07:38:43;22.30;86.20
37996;DHT22;23808;50.634;6.948;2022-07-04T07:42:44;22.40;83.30
37996;DHT22;23808;50.634;6.948;2022-07-04T07:46:45;22.40;82.80
37996;DHT22;23808;50.634;6.948;2022-07-04T07:50:45;22.50;82.30
37996;DHT22;23808;50.634;6.948;2022-07-04T07:54:46;22.60;80.50
37996;DHT22;23808;50.634;6.948;2022-07-04T07:58:49;22.80;77.60
37996;DHT22;23808;50.634;6.948;2022-07-04T08:02:50;22.80;75.70
37996;DHT22;23808;50.634;6.948;2022-07-04T08:07:11;22.80;78.10
37996;DHT22;23808;50.634;6.948;2022-07-04T08:11:14;22.90;75.30
37996;DHT22;23808;50.634;6.948;2022-07-04T08:15:15;23.00;75.50
37996;DHT22;23808;50.634;6.948;2022-07-04T08:19:16;23.20;75.90
37996;DHT22;23808;50.634;6.948;2022-07-04T08:23:16;23.10;74.10
37996;DHT22;23808;50.634;6.948;2022-07-04T08:27:17;23.10;74.90
37996;DHT22;23808;50.634;6.948;2022-07-04T08:31:19;23.20;72.20
37996;DHT22;23808;50.634;6.948;2022-07-04T08:35:19;23.20;73.20
37996;DHT22;23808;50.634;6.948;2022-07-04T08:39:20;23.40;72.50
37996;DHT22;23808;50.634;6.948;2022-07-04T08:43:22;23.50;74.70
37996;DHT22;23808;50.634;6.948;2022-07-04T08:47:24;23.50;73.40
37996;DHT22;23808;50.634;6.948;2022-07-04T08:51:47;23.50;71.60
37996;DHT22;23808;50.634;6.948;2022-07-04T08:55:48;23.40;69.90
37996;DHT22;23808;50.634;6.948;2022-07-04T09:00:08;23.50;71.90
37996;DHT22;23808;50.634;6.948;2022-07-04T09:04:10;23.60;71.60
37996;DHT22;23808;50.634;6.948;2022-07-04T09:08:11;23.70;70.50
37996;DHT22;23808;50.634;6.948;2022-07-04T09:12:12;23.80;70.60
37996;DHT22;23808;50.634;6.948;2022-07-04T09:16:12;23.90;71.70
37996;DHT22;23808;50.634;6.948;2022-07-04T09:20:18;24.10;70.10
37996;DHT22;23808;50.634;6.948;2022-07-04T09:28:50;24.70;69.00
37996;DHT22;23808;50.634;6.948;2022-07-04T09:32:56;24.80;69.70
37996;DHT22;23808;50.634;6.948;2022-07-04T09:37:00;25.00;67.60
37996;DHT22;23808;50.634;6.948;2022-07-04T09:41:02;25.00;66.70
37996;DHT22;23808;50.634;6.948;2022-07-04T09:45:22;25.20;66.70
37996;DHT22;23808;50.634;6.948;2022-07-04T09:49:24;25.40;65.90
37996;DHT22;23808;50.634;6.948;2022-07-04T09:53:28;25.60;64.30
37996;DHT22;23808;50.634;6.948;2022-07-04T09:57:29;25.80;65.30
37996;DHT22;23808;50.634;6.948;2022-07-04T10:01:31;26.00;64.30
37996;DHT22;23808;50.634;6.948;2022-07-04T10:05:32;26.10;62.50
37996;DHT22;23808;50.634;6.948;2022-07-04T10:09:32;26.30;62.90
37996;DHT22;23808;50.634;6.948;2022-07-04T10:13:33;26.90;61.40
37996;DHT22;23808;50.634;6.948;2022-07-04T10:17:34;27.00;60.90
37996;DHT22;23808;50.634;6.948;2022-07-04T10:21:34;27.20;61.70
37996;DHT22;23808;50.634;6.948;2022-07-04T10:25:36;27.60;61.10
37996;DHT22;23808;50.634;6.948;2022-07-04T10:29:37;28.10;60.60
37996;DHT22;23808;50.634;6.948;2022-07-04T10:33:38;28.50;59.90
37996;DHT22;23808;50.634;6.948;2022-07-04T10:37:58;28.80;59.90
37996;DHT22;23808;50.634;6.948;2022-07-04T10:41:59;29.40;59.50
37996;DHT22;23808;50.634;6.948;2022-07-04T10:50:08;28.70;58.00
37996;DHT22;23808;50.634;6.948;2022-07-04T10:54:20;28.70;57.60
37996;DHT22;23808;50.634;6.948;2022-07-04T10:58:41;29.10;55.30
37996;DHT22;23808;50.634;6.948;2022-07-04T11:02:42;29.00;55.90
37996;DHT22;23808;50.634;6.948;2022-07-04T11:06:49;29.00;56.70
37996;DHT22;23808;50.634;6.948;2022-07-04T11:10:52;29.50;56.20
37996;DHT22;23808;50.634;6.948;2022-07-04T11:15:05;29.80;55.00
37996;DHT22;23808;50.634;6.948;2022-07-04T11:19:06;29.90;55.70
37996;DHT22;23808;50.634;6.948;2022-07-04T11:23:11;30.10;55.40
37996;DHT22;23808;50.634;6.948;2022-07-04T11:27:12;30.20;55.90
37996;DHT22;23808;50.634;6.948;2022-07-04T11:31:13;30.30;54.80
37996;DHT22;23808;50.634;6.948;2022-07-04T11:35:20;30.40;54.70
37996;DHT22;23808;50.634;6.948;2022-07-04T11:39:21;30.60;55.30
37996;DHT22;23808;50.634;6.948;2022-07-04T11:43:22;31.00;55.30
37996;DHT22;23808;50.634;6.948;2022-07-04T11:47:42;31.50;53.80
37996;DHT22;23808;50.634;6.948;2022-07-04T11:51:47;31.50;53.30
37996;DHT22;23808;50.634;6.948;2022-07-04T11:55:54;31.20;53.20
37996;DHT22;23808;50.634;6.948;2022-07-04T12:00:00;30.90;53.30
37996;DHT22;23808;50.634;6.948;2022-07-04T12:04:17;31.10;52.80
37996;DHT22;23808;50.634;6.948;2022-07-04T12:08:18;31.20;53.40
37996;DHT22;23808;50.634;6.948;2022-07-04T12:12:19;31.20;52.20
37996;DHT22;23808;50.634;6.948;2022-07-04T12:16:20;30.70;51.90
37996;DHT22;23808;50.634;6.948;2022-07-04T12:20:24;30.40;53.90
37996;DHT22;23808;50.634;6.948;2022-07-04T12:24:38;29.70;54.10
37996;DHT22;23808;50.634;6.948;2022-07-04T12:28:41;29.30;55.10
37996;DHT22;23808;50.634;6.948;2022-07-04T12:32:44;29.60;54.50
37996;DHT22;23808;50.634;6.948;2022-07-04T12:36:56;30.00;54.60
37996;DHT22;23808;50.634;6.948;2022-07-04T12:41:11;30.10;55.50
37996;DHT22;23808;50.634;6.948;2022-07-04T12:45:12;29.50;54.50
37996;DHT22;23808;50.634;6.948;2022-07-04T12:49:16;29.00;56.10
37996;DHT22;23808;50.634;6.948;2022-07-04T12:53:19;29.40;55.90
37996;DHT22;23808;50.634;6.948;2022-07-04T12:57:19;29.70;53.60
37996;DHT22;23808;50.634;6.948;2022-07-04T13:01:20;29.70;54.80
37996;DHT22;23808;50.634;6.948;2022-07-04T13:05:21;29.80;55.00
37996;DHT22;23808;50.634;6.948;2022-07-04T13:09:22;30.30;54.30
37996;DHT22;23808;50.634;6.948;2022-07-04T13:13:22;30.50;54.60
37996;DHT22;23808;50.634;6.948;2022-07-04T13:17:24;30.30;54.00
37996;DHT22;23808;50.634;6.948;2022-07-04T13:21:25;30.20;53.50
37996;DHT22;23808;50.634;6.948;2022-07-04T13:25:26;30.20;53.40
37996;DHT22;23808;50.634;6.948;2022-07-04T13:29:27;29.80;55.10
37996;DHT22;23808;50.634;6.948;2022-07-04T13:33:28;30.10;54.70
37996;DHT22;23808;50.634;6.948;2022-07-04T13:37:37;30.30;55.00
37996;DHT22;23808;50.634;6.948;2022-07-04T13:41:41;30.70;53.60
37996;DHT22;23808;50.634;6.948;2022-07-04T13:45:44;31.00;54.10
37996;DHT22;23808;50.634;6.948;2022-07-04T13:49:47;31.40;54.00
37996;DHT22;23808;50.634;6.948;2022-07-04T13:53:48;31.50;53.70
37996;DHT22;23808;50.634;6.948;2022-07-04T13:57:51;31.70;53.50
37996;DHT22;23808;50.634;6.948;2022-07-04T14:01:52;32.00;52.70
37996;DHT22;23808;50.634;6.948;2022-07-04T14:05:56;32.20;52.60
37996;DHT22;23808;50.634;6.948;2022-07-04T14:09:56;32.50;51.90
37996;DHT22;23808;50.634;6.948;2022-07-04T14:13:57;32.50;51.90
37996;DHT22;23808;50.634;6.948;2022-07-04T14:18:00;32.60;51.80
37996;DHT22;23808;50.634;6.948;2022-07-04T14:22:13;32.60;51.10
37996;DHT22;23808;50.634;6.948;2022-07-04T14:26:17;32.30;51.10
37996;DHT22;23808;50.634;6.948;2022-07-04T14:30:19;31.20;51.80
37996;DHT22;23808;50.634;6.948;2022-07-04T14:34:20;30.70;53.50
37996;DHT22;23808;50.634;6.948;2022-07-04T14:38:21;30.30;53.20
37996;DHT22;23808;50.634;6.948;2022-07-04T14:42:21;29.80;53.90
37996;DHT22;23808;50.634;6.948;2022-07-04T14:46:22;30.10;53.70
37996;DHT22;23808;50.634;6.948;2022-07-04T14:50:23;30.70;54.10
37996;DHT22;23808;50.634;6.948;2022-07-04T14:54:23;31.20;52.70
37996;DHT22;23808;50.634;6.948;2022-07-04T14:58:24;31.10;52.90
37996;DHT22;23808;50.634;6.948;2022-07-04T15:02:24;30.90;52.80
37996;DHT22;23808;50.634;6.948;2022-07-04T15:06:25;30.70;53.10
37996;DHT22;23808;50.634;6.948;2022-07-04T15:10:26;30.50;53.50
37996;DHT22;23808;50.634;6.948;2022-07-04T15:14:26;30.90;54.10
37996;DHT22;23808;50.634;6.948;2022-07-04T15:18:27;31.20;52.70
37996;DHT22;23808;50.634;6.948;2022-07-04T15:22:30;31.40;52.30
37996;DHT22;23808;50.634;6.948;2022-07-04T15:26:50;31.40;52.30
37996;DHT22;23808;50.634;6.948;2022-07-04T15:30:51;31.40;52.90
37996;DHT22;23808;50.634;6.948;2022-07-04T15:34:52;31.30;52.70
37996;DHT22;23808;50.634;6.948;2022-07-04T15:38:53;31.10;52.20
37996;DHT22;23808;50.634;6.948;2022-07-04T15:42:53;31.00;52.80
37996;DHT22;23808;50.634;6.948;2022-07-04T15:46:54;31.00;52.80
37996;DHT22;23808;50.634;6.948;2022-07-04T15:51:09;30.90;52.80
37996;DHT22;23808;50.634;6.948;2022-07-04T15:55:10;30.80;52.70
37996;DHT22;23808;50.634;6.948;2022-07-04T15:59:10;30.80;53.10
37996;DHT22;23808;50.634;6.948;2022-07-04T16:03:11;30.70;52.60
37996;DHT22;23808;50.634;6.948;2022-07-04T16:07:14;30.60;52.40
37996;DHT22;23808;50.634;6.948;2022-07-04T16:11:16;30.40;52.70
37996;DHT22;23808;50.634;6.948;2022-07-04T16:15:16;30.40;53.20
37996;DHT22;23808;50.634;6.948;2022-07-04T16:19:17;30.30;52.60
37996;DHT22;23808;50.634;6.948;2022-07-04T16:23:17;30.00;52.80
37996;DHT22;23808;50.634;6.948;2022-07-04T16:27:18;29.70;53.90
37996;DHT22;23808;50.634;6.948;2022-07-04T16:31:19;29.50;54.40
37996;DHT22;23808;50.634;6.948;2022-07-04T16:35:20;29.70;54.10
37996;DHT22;23808;50.634;6.948;2022-07-04T16:39:20;29.70;53.40
37996;DHT22;23808;50.634;6.948;2022-07-04T16:43:23;29.80;54.00
37996;DHT22;23808;50.634;6.948;2022-07-04T16:47:24;29.90;53.60
37996;DHT22;23808;50.634;6.948;2022-07-04T16:51:24;29.90;52.80
37996;DHT22;23808;50.634;6.948;2022-07-04T16:55:26;29.70;53.10
37996;DHT22;23808;50.634;6.948;2022-07-04T16:59:26;29.50;53.40
37996;DHT22;23808;50.634;6.948;2022-07-04T17:03:27;29.60;53.10
37996;DHT22;23808;50.634;6.948;2022-07-04T17:07:27;29.40;53.00
37996;DHT22;23808;50.634;6.948;2022-07-04T17:11:29;29.30;53.50
37996;DHT22;23808;50.634;6.948;2022-07-04T17:15:29;29.20;53.70
37996;DHT22;23808;50.634;6.948;2022-07-04T17:19:30;29.00;53.60
37996;DHT22;23808;50.634;6.948;2022-07-04T17:23:30;29.00;54.10
37996;DHT22;23808;50.634;6.948;2022-07-04T17:27:31;28.90;53.80
37996;DHT22;23808;50.634;6.948;2022-07-04T17:31:32;28.90;53.40
37996;DHT22;23808;50.634;6.948;2022-07-04T17:35:32;28.60;53.90
37996;DHT22;23808;50.634;6.948;2022-07-04T17:39:33;28.50;54.00
37996;DHT22;23808;50.634;6.948;2022-07-04T17:43:33;28.20;54.60
37996;DHT22;23808;50.634;6.948;2022-07-04T17:47:34;28.00;55.40
37996;DHT22;23808;50.634;6.948;2022-07-04T17:51:36;27.90;55.40
37996;DHT22;23808;50.634;6.948;2022-07-04T17:55:37;28.00;55.50
37996;DHT22;23808;50.634;6.948;2022-07-04T17:59:39;28.00;55.10
37996;DHT22;23808;50.634;6.948;2022-07-04T18:03:39;27.70;55.70
37996;DHT22;23808;50.634;6.948;2022-07-04T18:07:40;27.40;55.60
37996;DHT22;23808;50.634;6.948;2022-07-04T18:11:41;27.30;56.40
37996;DHT22;23808;50.634;6.948;2022-07-04T18:15:41;27.10;56.90
37996;DHT22;23808;50.634;6.948;2022-07-04T18:19:42;26.90;57.60
37996;DHT22;23808;50.634;6.948;2022-07-04T18:23:43;26.90;58.30
37996;DHT22;23808;50.634;6.948;2022-07-04T18:27:44;26.80;58.10
37996;DHT22;23808;50.634;6.948;2022-07-04T18:31:52;26.80;58.30
37996;DHT22;23808;50.634;6.948;2022-07-04T18:35:53;26.70;58.40
37996;DHT22;23808;50.634;6.948;2022-07-04T18:39:53;26.70;59.60
37996;DHT22;23808;50.634;6.948;2022-07-04T18:43:54;26.60;58.70
37996;DHT22;23808;50.634;6.948;2022-07-04T18:47:55;26.50;58.30
37996;DHT22;23808;50.634;6.948;2022-07-04T18:51:55;26.40;58.10
37996;DHT22;23808;50.634;6.948;2022-07-04T18:55:57;26.20;59.10
37996;DHT22;23808;50.634;6.948;2022-07-04T18:59:58;26.10;59.70
37996;DHT22;23808;50.634;6.948;2022-07-04T19:04:00;25.90;60.70
37996;DHT22;23808;50.634;6.948;2022-07-04T19:08:02;25.50;61.90
37996;DHT22;23808;50.634;6.948;2022-07-04T19:12:04;25.00;62.40
37996;DHT22;23808;50.634;6.948;2022-07-04T19:16:04;24.70;62.90
37996;DHT22;23808;50.634;6.948;2022-07-04T19:20:08;24.30;63.80
37996;DHT22;23808;50.634;6.948;2022-07-04T19:24:09;24.10;64.10
37996;DHT22;23808;50.634;6.948;2022-07-04T19:28:09;23.80;65.20
37996;DHT22;23808;50.634;6.948;2022-07-04T19:32:10;23.50;65.80
37996;DHT22;23808;50.634;6.948;2022-07-04T19:36:10;23.30;66.60
37996;DHT22;23808;50.634;6.948;2022-07-04T19:40:13;23.00;66.70
37996;DHT22;23808;50.634;6.948;2022-07-04T19:44:14;22.90;67.70
37996;DHT22;23808;50.634;6.948;2022-07-04T19:48:15;22.60;68.50
37996;DHT22;23808;50.634;6.948;2022-07-04T19:52:17;22.40;69.30
37996;DHT22;23808;50.634;6.948;2022-07-04T19:56:32;22.20;71.00
37996;DHT22;23808;50.634;6.948;2022-07-04T20:00:32;22.10;72.20
37996;DHT22;23808;50.634;6.948;2022-07-04T20:04:33;22.00;71.40
37996;DHT22;23808;50.634;6.948;2022-07-04T20:08:34;21.80;73.20
37996;DHT22;23808;50.634;6.948;2022-07-04T20:12:35;21.70;72.40
37996;DHT22;23808;50.634;6.948;2022-07-04T20:16:35;21.60;74.60
37996;DHT22;23808;50.634;6.948;2022-07-04T20:20:37;21.40;76.30
37996;DHT22;23808;50.634;6.948;2022-07-04T20:24:37;21.30;75.30
37996;DHT22;23808;50.634;6.948;2022-07-04T20:28:39;21.20;75.60
37996;DHT22;23808;50.634;6.948;2022-07-04T20:32:40;21.10;77.10
37996;DHT22;23808;50.634;6.948;2022-07-04T20:36:40;20.90;75.60
37996;DHT22;23808;50.634;6.948;2022-07-04T20:40:42;20.90;76.60
37996;DHT22;23808;50.634;6.948;2022-07-04T20:44:42;20.80;78.50
37996;DHT22;23808;50.634;6.948;2022-07-04T20:48:43;20.60;78.70
37996;DHT22;23808;50.634;6.948;2022-07-04T20:52:45;20.50;78.80
37996;DHT22;23808;50.634;6.948;2022-07-04T20:56:46;20.40;78.70
37996;DHT22;23808;50.634;6.948;2022-07-04T21:00:46;20.30;78.50
37996;DHT22;23808;50.634;6.948;2022-07-04T21:04:47;20.20;78.80
37996;DHT22;23808;50.634;6.948;2022-07-04T21:08:48;20.10;79.80
37996;DHT22;23808;50.634;6.948;2022-07-04T21:12:49;20.00;80.10
37996;DHT22;23808;50.634;6.948;2022-07-04T21:16:51;20.00;80.10
37996;DHT22;23808;50.634;6.948;2022-07-04T21:20:51;19.90;80.80
37996;DHT22;23808;50.634;6.948;2022-07-04T21:24:52;19.80;80.60
37996;DHT22;23808;50.634;6.948;2022-07-04T21:28:53;19.60;81.80
37996;DHT22;23808;50.634;6.948;2022-07-04T21:32:53;19.60;82.30
37996;DHT22;23808;50.634;6.948;2022-07-04T21:36:54;19.50;82.60
37996;DHT22;23808;50.634;6.948;2022-07-04T21:40:56;19.40;83.20
37996;DHT22;23808;50.634;6.948;2022-07-04T21:44:59;19.30;83.80
37996;DHT22;23808;50.634;6.948;2022-07-04T21:49:00;19.30;83.40
37996;DHT22;23808;50.634;6.948;2022-07-04T21:53:02;19.20;83.90
37996;DHT22;23808;50.634;6.948;2022-07-04T21:57:03;19.10;83.40
37996;DHT22;23808;50.634;6.948;2022-07-04T22:01:04;19.10;81.90
37996;DHT22;23808;50.634;6.948;2022-07-04T22:05:04;19.10;84.20
37996;DHT22;23808;50.634;6.948;2022-07-04T22:09:05;19.10;83.60
37996;DHT22;23808;50.634;6.948;2022-07-04T22:13:06;19.10;84.10
37996;DHT22;23808;50.634;6.948;2022-07-04T22:17:06;19.00;83.90
37996;DHT22;23808;50.634;6.948;2022-07-04T22:21:07;19.00;82.90
37996;DHT22;23808;50.634;6.948;2022-07-04T22:25:08;19.00;81.70
37996;DHT22;23808;50.634;6.948;2022-07-04T22:29:09;19.10;80.70
37996;DHT22;23808;50.634;6.948;2022-07-04T22:33:10;19.20;80.30
37996;DHT22;23808;50.634;6.948;2022-07-04T22:37:10;19.30;80.10
37996;DHT22;23808;50.634;6.948;2022-07-04T22:41:11;19.40;79.90
37996;DHT22;23808;50.634;6.948;2022-07-04T22:45:13;19.50;79.70
37996;DHT22;23808;50.634;6.948;2022-07-04T22:49:14;19.60;79.40
37996;DHT22;23808;50.634;6.948;2022-07-04T22:53:15;19.60;79.40
37996;DHT22;23808;50.634;6.948;2022-07-04T22:57:37;19.70;79.40
37996;DHT22;23808;50.634;6.948;2022-07-04T23:01:38;19.70;79.40
37996;DHT22;23808;50.634;6.948;2022-07-04T23:05:39;19.60;81.90
37996;DHT22;23808;50.634;6.948;2022-07-04T23:09:39;19.40;83.40
37996;DHT22;23808;50.634;6.948;2022-07-04T23:13:40;19.20;83.70
37996;DHT22;23808;50.634;6.948;2022-07-04T23:17:41;19.10;84.30
37996;DHT22;23808;50.634;6.948;2022-07-04T23:21:41;18.90;84.80
37996;DHT22;23808;50.634;6.948;2022-07-04T23:25:42;18.80;85.60
37996;DHT22;23808;50.634;6.948;2022-07-04T23:29:43;18.70;85.50
37996;DHT22;23808;50.634;6.948;2022-07-04T23:33:43;18.60;85.60
37996;DHT22;23808;50.634;6.948;2022-07-04T23:37:44;18.50;85.50
37996;DHT22;23808;50.634;6.948;2022-07-04T23:41:44;18.40;85.80
37996;DHT22;23808;50.634;6.948;2022-07-04T23:45:45;18.30;86.10
37996;DHT22;23808;50.634;6.948;2022-07-04T23:49:45;18.20;86.90
37996;DHT22;23808;50.634;6.948;2022-07-04T23:53:46;18.20;87.90
37996;DHT22;23808;50.634;6.948;2022-07-04T23:57:47;18.10;88.90
